sensor_id;sensor_type;location;lat;lon;timestamp;temperature;humidity
34837;DHT22;21053;50.848;4.652;2023-10-09T00:01:03;14.90;99.90
34837;DHT22;21053;50.848;4.652;2023-10-09T00:03:47;14.90;99.90
34837;DHT22;21053;50.848;4.652;2023-10-09T00:09:02;14.90;99.90
34837;DHT22;21053;50.848;4.652;2023-10-09T00:11:40;14.90;99.90
34837;DHT22;21053;50.848;4.652;2023-10-09T00:14:07;14.90;99.90
34837;DHT22;21053;50.848;4.652;2023-10-09T00:16:34;14.90;99.90
34837;DHT22;21053;50.848;4.652;2023-10-09T00:19:09;14.90;99.90
34837;DHT22;21053;50.848;4.652;2023-10-09T00:21:48;15.00;99.90
34837;DHT22;21053;50.848;4.652;2023-10-09T00:24:18;14.90;99.90
34837;DHT22;21053;50.848;4.652;2023-10-09T00:26:54;14.90;99.90
34837;DHT22;21053;50.848;4.652;2023-10-09T00:29:45;14.90;99.90
34837;DHT22;21053;50.848;4.652;2023-10-09T00:32:15;14.90;99.90
34837;DHT22;21053;50.848;4.652;2023-10-09T00:34:49;15.00;99.90
34837;DHT22;21053;50.848;4.652;2023-10-09T00:51:52;15.20;99.90
34837;DHT22;21053;50.848;4.652;2023-10-09T01:09:33;15.10;99.90
34837;DHT22;21053;50.848;4.652;2023-10-09T01:19:47;15.10;99.90
34837;DHT22;21053;50.848;4.652;2023-10-09T01:22:43;15.10;99.90
34837;DHT22;21053;50.848;4.652;2023-10-09T01:48:30;15.00;99.90
34837;DHT22;21053;50.848;4.652;2023-10-09T01:51:23;15.00;99.90
34837;DHT22;21053;50.848;4.652;2023-10-09T01:57:57;15.10;99.90
34837;DHT22;21053;50.848;4.652;2023-10-09T02:00:59;15.10;99.90
34837;DHT22;21053;50.848;4.652;2023-10-09T02:03:34;15.10;99.90
34837;DHT22;21053;50.848;4.652;2023-10-09T02:06:53;15.10;99.90
34837;DHT22;21053;50.848;4.652;2023-10-09T02:13:31;15.20;99.90
34837;DHT22;21053;50.848;4.652;2023-10-09T02:16:39;15.30;99.90
34837;DHT22;21053;50.848;4.652;2023-10-09T02:19:27;15.30;99.90
34837;DHT22;21053;50.848;4.652;2023-10-09T02:22:08;15.40;99.90
34837;DHT22;21053;50.848;4.652;2023-10-09T02:25:03;15.40;99.90
34837;DHT22;21053;50.848;4.652;2023-10-09T02:27:52;15.40;99.90
34837;DHT22;21053;50.848;4.652;2023-10-09T02:31:14;15.40;99.90
34837;DHT22;21053;50.848;4.652;2023-10-09T02:45:00;15.50;99.90
34837;DHT22;21053;50.848;4.652;2023-10-09T03:02:19;15.30;99.90
34837;DHT22;21053;50.848;4.652;2023-10-09T03:19:53;15.30;99.90
34837;DHT22;21053;50.848;4.652;2023-10-09T03:23:01;15.40;99.90
34837;DHT22;21053;50.848;4.652;2023-10-09T03:29:51;15.20;99.90
34837;DHT22;21053;50.848;4.652;2023-10-09T03:46:22;15.10;99.90
34837;DHT22;21053;50.848;4.652;2023-10-09T03:52:30;15.00;99.90
34837;DHT22;21053;50.848;4.652;2023-10-09T03:55:37;14.90;99.90
34837;DHT22;21053;50.848;4.652;2023-10-09T03:58:27;14.80;99.90
34837;DHT22;21053;50.848;4.652;2023-10-09T04:04:39;14.90;99.90
34837;DHT22;21053;50.848;4.652;2023-10-09T04:07:17;14.90;99.90
34837;DHT22;21053;50.848;4.652;2023-10-09T04:19:20;14.90;99.90
34837;DHT22;21053;50.848;4.652;2023-10-09T04:22:11;14.90;99.90
34837;DHT22;21053;50.848;4.652;2023-10-09T04:25:06;14.80;99.90
34837;DHT22;21053;50.848;4.652;2023-10-09T04:28:26;14.80;99.90
34837;DHT22;21053;50.848;4.652;2023-10-09T04:31:05;14.80;99.90
34837;DHT22;21053;50.848;4.652;2023-10-09T04:33:42;14.80;99.90
34837;DHT22;21053;50.848;4.652;2023-10-09T04:43:40;14.90;99.90
34837;DHT22;21053;50.848;4.652;2023-10-09T04:46:13;14.90;99.90
34837;DHT22;21053;50.848;4.652;2023-10-09T04:49:12;14.80;99.90
34837;DHT22;21053;50.848;4.652;2023-10-09T04:51:56;14.90;99.90
34837;DHT22;21053;50.848;4.652;2023-10-09T04:54:44;14.90;99.90
34837;DHT22;21053;50.848;4.652;2023-10-09T04:57:44;14.90;99.90
34837;DHT22;21053;50.848;4.652;2023-10-09T05:00:17;14.90;99.90
34837;DHT22;21053;50.848;4.652;2023-10-09T05:02:59;15.00;99.90
34837;DHT22;21053;50.848;4.652;2023-10-09T05:05:41;15.00;99.90
34837;DHT22;21053;50.848;4.652;2023-10-09T05:08:15;15.10;99.90
34837;DHT22;21053;50.848;4.652;2023-10-09T05:10:51;15.10;99.90
34837;DHT22;21053;50.848;4.652;2023-10-09T05:13:34;15.20;99.90
34837;DHT22;21053;50.848;4.652;2023-10-09T05:16:07;15.20;99.90
34837;DHT22;21053;50.848;4.652;2023-10-09T05:18:54;15.20;99.90
34837;DHT22;21053;50.848;4.652;2023-10-09T05:22:21;15.10;99.90
34837;DHT22;21053;50.848;4.652;2023-10-09T05:25:32;15.20;99.90
34837;DHT22;21053;50.848;4.652;2023-10-09T05:28:18;15.30;99.90
34837;DHT22;21053;50.848;4.652;2023-10-09T05:31:03;15.20;99.90
34837;DHT22;21053;50.848;4.652;2023-10-09T05:33:40;15.10;99.90
34837;DHT22;21053;50.848;4.652;2023-10-09T05:36:12;15.10;99.90
34837;DHT22;21053;50.848;4.652;2023-10-09T05:38:50;15.20;99.90
34837;DHT22;21053;50.848;4.652;2023-10-09T05:41:27;15.10;99.90
34837;DHT22;21053;50.848;4.652;2023-10-09T05:44:37;15.10;99.90
34837;DHT22;21053;50.848;4.652;2023-10-09T05:47:23;15.20;99.90
34837;DHT22;21053;50.848;4.652;2023-10-09T05:49:56;15.10;99.90
34837;DHT22;21053;50.848;4.652;2023-10-09T05:52:33;15.10;99.90
34837;DHT22;21053;50.848;4.652;2023-10-09T05:55:11;15.20;99.90
34837;DHT22;21053;50.848;4.652;2023-10-09T05:57:57;15.10;99.90
34837;DHT22;21053;50.848;4.652;2023-10-09T06:00:30;15.10;99.90
34837;DHT22;21053;50.848;4.652;2023-10-09T06:03:18;15.20;99.90
34837;DHT22;21053;50.848;4.652;2023-10-09T06:05:50;15.10;99.90
34837;DHT22;21053;50.848;4.652;2023-10-09T06:08:20;15.10;99.90
34837;DHT22;21053;50.848;4.652;2023-10-09T06:13:50;15.10;99.90
34837;DHT22;21053;50.848;4.652;2023-10-09T06:16:29;15.10;99.90
34837;DHT22;21053;50.848;4.652;2023-10-09T06:19:10;15.10;99.90
34837;DHT22;21053;50.848;4.652;2023-10-09T06:21:47;15.30;99.90
34837;DHT22;21053;50.848;4.652;2023-10-09T06:24:23;15.30;99.90
34837;DHT22;21053;50.848;4.652;2023-10-09T06:26:52;15.30;99.90
34837;DHT22;21053;50.848;4.652;2023-10-09T06:29:42;15.30;99.90
34837;DHT22;21053;50.848;4.652;2023-10-09T06:32:12;15.40;99.90
34837;DHT22;21053;50.848;4.652;2023-10-09T06:34:59;15.40;99.90
34837;DHT22;21053;50.848;4.652;2023-10-09T06:37:53;15.40;99.90
34837;DHT22;21053;50.848;4.652;2023-10-09T06:40:35;15.40;99.90
34837;DHT22;21053;50.848;4.652;2023-10-09T06:43:07;15.50;99.90
34837;DHT22;21053;50.848;4.652;2023-10-09T06:45:59;15.50;99.90
34837;DHT22;21053;50.848;4.652;2023-10-09T06:48:46;15.60;99.90
34837;DHT22;21053;50.848;4.652;2023-10-09T06:51:24;15.60;99.90
34837;DHT22;21053;50.848;4.652;2023-10-09T06:53:53;15.60;99.90
34837;DHT22;21053;50.848;4.652;2023-10-09T06:56:21;15.70;99.90
34837;DHT22;21053;50.848;4.652;2023-10-09T06:58:59;15.70;99.90
34837;DHT22;21053;50.848;4.652;2023-10-09T07:01:31;15.70;99.90
34837;DHT22;21053;50.848;4.652;2023-10-09T07:04:09;15.80;99.90
34837;DHT22;21053;50.848;4.652;2023-10-09T07:06:46;15.90;99.90
34837;DHT22;21053;50.848;4.652;2023-10-09T07:09:15;16.10;99.90
34837;DHT22;21053;50.848;4.652;2023-10-09T07:11:42;16.20;99.90
34837;DHT22;21053;50.848;4.652;2023-10-09T07:14:16;16.30;99.90
34837;DHT22;21053;50.848;4.652;2023-10-09T07:17:04;16.40;99.90
34837;DHT22;21053;50.848;4.652;2023-10-09T07:19:53;16.60;99.90
34837;DHT22;21053;50.848;4.652;2023-10-09T07:22:18;16.70;99.90
34837;DHT22;21053;50.848;4.652;2023-10-09T07:24:48;16.80;99.90
34837;DHT22;21053;50.848;4.652;2023-10-09T07:27:27;16.90;99.90
34837;DHT22;21053;50.848;4.652;2023-10-09T07:30:11;16.90;99.90
34837;DHT22;21053;50.848;4.652;2023-10-09T07:33:04;17.10;99.90
34837;DHT22;21053;50.848;4.652;2023-10-09T07:35:46;17.10;99.90
34837;DHT22;21053;50.848;4.652;2023-10-09T07:38:21;17.10;99.90
34837;DHT22;21053;50.848;4.652;2023-10-09T07:40:57;17.20;99.90
34837;DHT22;21053;50.848;4.652;2023-10-09T07:43:46;17.20;99.90
34837;DHT22;21053;50.848;4.652;2023-10-09T07:46:18;17.20;99.90
34837;DHT22;21053;50.848;4.652;2023-10-09T07:49:10;17.20;99.90
34837;DHT22;21053;50.848;4.652;2023-10-09T07:51:40;17.20;99.90
34837;DHT22;21053;50.848;4.652;2023-10-09T07:54:14;17.40;99.90
34837;DHT22;21053;50.848;4.652;2023-10-09T07:56:41;17.50;99.90
34837;DHT22;21053;50.848;4.652;2023-10-09T07:59:10;17.60;99.90
34837;DHT22;21053;50.848;4.652;2023-10-09T08:01:49;17.90;99.90
34837;DHT22;21053;50.848;4.652;2023-10-09T08:04:25;18.10;99.90
34837;DHT22;21053;50.848;4.652;2023-10-09T08:07:07;18.40;99.90
34837;DHT22;21053;50.848;4.652;2023-10-09T08:09:37;18.60;99.90
34837;DHT22;21053;50.848;4.652;2023-10-09T08:12:15;18.60;99.90
34837;DHT22;21053;50.848;4.652;2023-10-09T08:15:00;18.60;99.90
34837;DHT22;21053;50.848;4.652;2023-10-09T08:17:55;18.80;99.90
34837;DHT22;21053;50.848;4.652;2023-10-09T08:20:45;18.80;99.90
34837;DHT22;21053;50.848;4.652;2023-10-09T08:23:39;18.90;99.90
34837;DHT22;21053;50.848;4.652;2023-10-09T08:26:15;19.10;99.90
34837;DHT22;21053;50.848;4.652;2023-10-09T08:28:55;19.10;99.90
34837;DHT22;21053;50.848;4.652;2023-10-09T08:31:43;19.10;99.90
34837;DHT22;21053;50.848;4.652;2023-10-09T08:34:14;19.20;99.90
34837;DHT22;21053;50.848;4.652;2023-10-09T08:36:52;19.20;99.90
34837;DHT22;21053;50.848;4.652;2023-10-09T08:39:19;19.30;99.90
34837;DHT22;21053;50.848;4.652;2023-10-09T08:42:00;19.60;99.90
34837;DHT22;21053;50.848;4.652;2023-10-09T08:44:30;19.60;99.90
34837;DHT22;21053;50.848;4.652;2023-10-09T08:46:58;19.80;99.90
34837;DHT22;21053;50.848;4.652;2023-10-09T08:49:28;19.90;99.90
34837;DHT22;21053;50.848;4.652;2023-10-09T08:51:58;20.00;99.90
34837;DHT22;21053;50.848;4.652;2023-10-09T08:54:29;19.90;99.90
34837;DHT22;21053;50.848;4.652;2023-10-09T08:56:58;19.90;99.90
34837;DHT22;21053;50.848;4.652;2023-10-09T08:59:24;20.10;99.90
34837;DHT22;21053;50.848;4.652;2023-10-09T09:01:53;20.20;99.90
34837;DHT22;21053;50.848;4.652;2023-10-09T09:04:38;20.30;99.90
34837;DHT22;21053;50.848;4.652;2023-10-09T09:09:58;20.40;99.90
34837;DHT22;21053;50.848;4.652;2023-10-09T09:12:32;20.60;99.90
34837;DHT22;21053;50.848;4.652;2023-10-09T09:15:13;20.70;99.90
34837;DHT22;21053;50.848;4.652;2023-10-09T09:17:49;21.40;99.90
34837;DHT22;21053;50.848;4.652;2023-10-09T09:20:20;21.40;99.90
34837;DHT22;21053;50.848;4.652;2023-10-09T09:22:56;21.50;99.90
34837;DHT22;21053;50.848;4.652;2023-10-09T09:25:28;22.10;99.90
34837;DHT22;21053;50.848;4.652;2023-10-09T09:28:04;22.40;99.90
34837;DHT22;21053;50.848;4.652;2023-10-09T09:30:36;22.40;99.90
34837;DHT22;21053;50.848;4.652;2023-10-09T09:33:21;22.80;99.90
34837;DHT22;21053;50.848;4.652;2023-10-09T09:36:05;23.70;99.80
34837;DHT22;21053;50.848;4.652;2023-10-09T09:38:35;24.20;98.60
34837;DHT22;21053;50.848;4.652;2023-10-09T09:41:14;23.80;98.50
34837;DHT22;21053;50.848;4.652;2023-10-09T09:43:59;23.70;99.10
34837;DHT22;21053;50.848;4.652;2023-10-09T09:46:37;23.80;98.80
34837;DHT22;21053;50.848;4.652;2023-10-09T09:49:11;23.70;97.70
34837;DHT22;21053;50.848;4.652;2023-10-09T09:51:48;24.20;97.70
34837;DHT22;21053;50.848;4.652;2023-10-09T09:54:16;24.90;96.70
34837;DHT22;21053;50.848;4.652;2023-10-09T09:56:47;25.30;94.60
34837;DHT22;21053;50.848;4.652;2023-10-09T09:59:19;25.30;94.90
34837;DHT22;21053;50.848;4.652;2023-10-09T10:01:59;25.40;94.50
34837;DHT22;21053;50.848;4.652;2023-10-09T10:04:37;25.30;94.30
34837;DHT22;21053;50.848;4.652;2023-10-09T10:07:06;25.00;94.70
34837;DHT22;21053;50.848;4.652;2023-10-09T10:09:41;24.90;94.10
34837;DHT22;21053;50.848;4.652;2023-10-09T10:12:11;24.90;94.40
34837;DHT22;21053;50.848;4.652;2023-10-09T10:14:55;24.50;95.10
34837;DHT22;21053;50.848;4.652;2023-10-09T10:20:30;24.40;96.10
34837;DHT22;21053;50.848;4.652;2023-10-09T10:23:19;24.30;96.50
34837;DHT22;21053;50.848;4.652;2023-10-09T10:25:49;24.00;96.50
34837;DHT22;21053;50.848;4.652;2023-10-09T10:28:25;23.90;97.40
34837;DHT22;21053;50.848;4.652;2023-10-09T10:30:55;23.60;97.90
34837;DHT22;21053;50.848;4.652;2023-10-09T10:34:23;23.60;98.00
34837;DHT22;21053;50.848;4.652;2023-10-09T10:36:39;23.60;97.10
34837;DHT22;21053;50.848;4.652;2023-10-09T10:39:09;23.80;96.80
34837;DHT22;21053;50.848;4.652;2023-10-09T10:41:55;24.20;96.60
34837;DHT22;21053;50.848;4.652;2023-10-09T10:44:32;24.80;94.90
34837;DHT22;21053;50.848;4.652;2023-10-09T10:47:11;24.70;95.00
34837;DHT22;21053;50.848;4.652;2023-10-09T10:49:59;24.60;94.50
34837;DHT22;21053;50.848;4.652;2023-10-09T10:52:39;24.20;95.60
34837;DHT22;21053;50.848;4.652;2023-10-09T10:55:19;23.90;96.00
34837;DHT22;21053;50.848;4.652;2023-10-09T11:00:42;23.80;95.40
34837;DHT22;21053;50.848;4.652;2023-10-09T11:03:25;23.70;96.10
34837;DHT22;21053;50.848;4.652;2023-10-09T11:06:29;23.60;95.60
34837;DHT22;21053;50.848;4.652;2023-10-09T11:09:09;23.60;95.90
34837;DHT22;21053;50.848;4.652;2023-10-09T11:12:03;23.60;96.20
34837;DHT22;21053;50.848;4.652;2023-10-09T11:14:53;23.60;96.70
34837;DHT22;21053;50.848;4.652;2023-10-09T11:17:38;23.80;96.90
34837;DHT22;21053;50.848;4.652;2023-10-09T11:20:12;23.80;97.10
34837;DHT22;21053;50.848;4.652;2023-10-09T11:22:58;23.80;96.50
34837;DHT22;21053;50.848;4.652;2023-10-09T11:25:33;23.90;96.90
34837;DHT22;21053;50.848;4.652;2023-10-09T11:28:02;23.90;96.50
34837;DHT22;21053;50.848;4.652;2023-10-09T11:30:51;24.00;96.40
34837;DHT22;21053;50.848;4.652;2023-10-09T11:33:23;24.00;95.20
34837;DHT22;21053;50.848;4.652;2023-10-09T11:35:56;24.00;94.40
34837;DHT22;21053;50.848;4.652;2023-10-09T11:38:23;24.00;94.20
34837;DHT22;21053;50.848;4.652;2023-10-09T11:40:51;24.00;94.20
34837;DHT22;21053;50.848;4.652;2023-10-09T11:43:19;24.30;94.00
34837;DHT22;21053;50.848;4.652;2023-10-09T11:46:18;24.30;94.60
34837;DHT22;21053;50.848;4.652;2023-10-09T11:49:09;24.40;94.20
34837;DHT22;21053;50.848;4.652;2023-10-09T11:51:47;24.60;94.60
34837;DHT22;21053;50.848;4.652;2023-10-09T11:54:35;24.60;93.10
34837;DHT22;21053;50.848;4.652;2023-10-09T11:57:02;24.60;94.00
34837;DHT22;21053;50.848;4.652;2023-10-09T11:59:32;24.60;94.30
34837;DHT22;21053;50.848;4.652;2023-10-09T12:02:09;24.40;93.40
34837;DHT22;21053;50.848;4.652;2023-10-09T12:04:41;24.20;94.60
34837;DHT22;21053;50.848;4.652;2023-10-09T12:07:10;24.10;94.90
34837;DHT22;21053;50.848;4.652;2023-10-09T12:09:40;24.10;95.20
34837;DHT22;21053;50.848;4.652;2023-10-09T12:12:08;24.20;95.40
34837;DHT22;21053;50.848;4.652;2023-10-09T12:14:39;24.20;94.50
34837;DHT22;21053;50.848;4.652;2023-10-09T12:17:06;24.40;94.90
34837;DHT22;21053;50.848;4.652;2023-10-09T12:19:34;24.30;94.40
34837;DHT22;21053;50.848;4.652;2023-10-09T12:22:05;24.30;94.90
34837;DHT22;21053;50.848;4.652;2023-10-09T12:24:34;24.30;94.60
34837;DHT22;21053;50.848;4.652;2023-10-09T12:27:00;24.50;94.60
34837;DHT22;21053;50.848;4.652;2023-10-09T12:32:02;24.60;93.80
34837;DHT22;21053;50.848;4.652;2023-10-09T12:34:31;24.50;93.40
34837;DHT22;21053;50.848;4.652;2023-10-09T12:36:57;24.20;93.50
34837;DHT22;21053;50.848;4.652;2023-10-09T12:39:30;24.10;94.10
34837;DHT22;21053;50.848;4.652;2023-10-09T12:42:02;24.10;93.70
34837;DHT22;21053;50.848;4.652;2023-10-09T12:44:35;24.10;93.50
34837;DHT22;21053;50.848;4.652;2023-10-09T12:47:13;24.10;94.50
34837;DHT22;21053;50.848;4.652;2023-10-09T12:49:42;24.10;94.40
34837;DHT22;21053;50.848;4.652;2023-10-09T12:52:08;24.30;94.80
34837;DHT22;21053;50.848;4.652;2023-10-09T12:54:44;24.30;94.70
34837;DHT22;21053;50.848;4.652;2023-10-09T12:57:28;24.30;95.30
34837;DHT22;21053;50.848;4.652;2023-10-09T12:59:56;24.20;94.30
34837;DHT22;21053;50.848;4.652;2023-10-09T13:02:22;24.10;94.80
34837;DHT22;21053;50.848;4.652;2023-10-09T13:04:55;24.10;94.40
34837;DHT22;21053;50.848;4.652;2023-10-09T13:07:22;23.90;94.20
34837;DHT22;21053;50.848;4.652;2023-10-09T13:09:50;24.00;94.20
34837;DHT22;21053;50.848;4.652;2023-10-09T13:12:37;23.70;93.70
34837;DHT22;21053;50.848;4.652;2023-10-09T13:15:14;23.80;94.40
34837;DHT22;21053;50.848;4.652;2023-10-09T13:17:43;23.80;95.00
34837;DHT22;21053;50.848;4.652;2023-10-09T13:20:11;23.70;94.60
34837;DHT22;21053;50.848;4.652;2023-10-09T13:22:43;23.70;94.80
34837;DHT22;21053;50.848;4.652;2023-10-09T13:25:14;23.60;94.50
34837;DHT22;21053;50.848;4.652;2023-10-09T13:27:53;23.70;95.00
34837;DHT22;21053;50.848;4.652;2023-10-09T13:30:22;23.70;95.20
34837;DHT22;21053;50.848;4.652;2023-10-09T13:32:53;23.80;95.80
34837;DHT22;21053;50.848;4.652;2023-10-09T13:35:22;23.80;95.50
34837;DHT22;21053;50.848;4.652;2023-10-09T13:38:03;23.70;95.40
34837;DHT22;21053;50.848;4.652;2023-10-09T13:40:36;23.80;95.60
34837;DHT22;21053;50.848;4.652;2023-10-09T13:43:08;23.90;96.00
34837;DHT22;21053;50.848;4.652;2023-10-09T13:45:44;23.90;94.60
34837;DHT22;21053;50.848;4.652;2023-10-09T13:48:15;24.00;94.60
34837;DHT22;21053;50.848;4.652;2023-10-09T13:50:46;24.10;94.50
34837;DHT22;21053;50.848;4.652;2023-10-09T13:53:13;24.20;94.10
34837;DHT22;21053;50.848;4.652;2023-10-09T13:55:47;24.20;95.00
34837;DHT22;21053;50.848;4.652;2023-10-09T13:58:13;24.00;95.80
34837;DHT22;21053;50.848;4.652;2023-10-09T14:00:46;23.80;94.30
34837;DHT22;21053;50.848;4.652;2023-10-09T14:03:15;23.70;94.50
34837;DHT22;21053;50.848;4.652;2023-10-09T14:05:48;23.60;95.60
34837;DHT22;21053;50.848;4.652;2023-10-09T14:08:38;23.50;96.40
34837;DHT22;21053;50.848;4.652;2023-10-09T14:11:09;23.40;96.70
34837;DHT22;21053;50.848;4.652;2023-10-09T14:13:42;23.30;96.50
34837;DHT22;21053;50.848;4.652;2023-10-09T14:16:10;23.10;96.20
34837;DHT22;21053;50.848;4.652;2023-10-09T14:18:52;23.10;96.30
34837;DHT22;21053;50.848;4.652;2023-10-09T14:21:32;23.00;97.20
34837;DHT22;21053;50.848;4.652;2023-10-09T14:24:00;23.00;97.30
34837;DHT22;21053;50.848;4.652;2023-10-09T14:26:27;23.20;97.40
34837;DHT22;21053;50.848;4.652;2023-10-09T14:28:55;23.30;95.90
34837;DHT22;21053;50.848;4.652;2023-10-09T14:31:58;23.40;96.20
34837;DHT22;21053;50.848;4.652;2023-10-09T14:34:47;23.50;96.30
34837;DHT22;21053;50.848;4.652;2023-10-09T14:37:24;23.60;95.80
34837;DHT22;21053;50.848;4.652;2023-10-09T14:39:50;23.60;96.10
34837;DHT22;21053;50.848;4.652;2023-10-09T14:42:17;23.50;95.80
34837;DHT22;21053;50.848;4.652;2023-10-09T14:44:45;23.70;96.30
34837;DHT22;21053;50.848;4.652;2023-10-09T14:47:14;23.70;95.80
34837;DHT22;21053;50.848;4.652;2023-10-09T14:49:42;23.70;95.80
34837;DHT22;21053;50.848;4.652;2023-10-09T14:52:15;23.50;95.60
34837;DHT22;21053;50.848;4.652;2023-10-09T14:54:48;23.40;96.20
34837;DHT22;21053;50.848;4.652;2023-10-09T14:57:24;23.40;96.50
34837;DHT22;21053;50.848;4.652;2023-10-09T14:59:53;23.40;96.50
34837;DHT22;21053;50.848;4.652;2023-10-09T15:02:28;23.30;96.40
34837;DHT22;21053;50.848;4.652;2023-10-09T15:04:56;23.30;97.80
34837;DHT22;21053;50.848;4.652;2023-10-09T15:07:23;23.30;98.30
34837;DHT22;21053;50.848;4.652;2023-10-09T15:09:50;23.30;98.80
34837;DHT22;21053;50.848;4.652;2023-10-09T15:12:17;23.20;99.30
34837;DHT22;21053;50.848;4.652;2023-10-09T15:14:43;23.30;99.40
34837;DHT22;21053;50.848;4.652;2023-10-09T15:17:12;23.30;99.20
34837;DHT22;21053;50.848;4.652;2023-10-09T15:19:41;23.10;99.00
34837;DHT22;21053;50.848;4.652;2023-10-09T15:22:13;23.10;99.00
34837;DHT22;21053;50.848;4.652;2023-10-09T15:24:42;23.10;99.50
34837;DHT22;21053;50.848;4.652;2023-10-09T15:27:10;23.10;99.90
34837;DHT22;21053;50.848;4.652;2023-10-09T15:29:39;23.00;99.70
34837;DHT22;21053;50.848;4.652;2023-10-09T15:32:12;22.80;99.90
34837;DHT22;21053;50.848;4.652;2023-10-09T15:34:44;22.60;99.90
34837;DHT22;21053;50.848;4.652;2023-10-09T15:37:10;22.40;99.90
34837;DHT22;21053;50.848;4.652;2023-10-09T15:39:38;22.20;99.90
34837;DHT22;21053;50.848;4.652;2023-10-09T15:42:05;22.00;99.90
34837;DHT22;21053;50.848;4.652;2023-10-09T15:44:40;22.00;99.90
34837;DHT22;21053;50.848;4.652;2023-10-09T15:47:08;21.70;99.90
34837;DHT22;21053;50.848;4.652;2023-10-09T15:49:40;21.70;99.90
34837;DHT22;21053;50.848;4.652;2023-10-09T15:52:11;21.60;99.90
34837;DHT22;21053;50.848;4.652;2023-10-09T15:54:45;21.40;99.90
34837;DHT22;21053;50.848;4.652;2023-10-09T15:57:21;21.40;99.90
34837;DHT22;21053;50.848;4.652;2023-10-09T15:59:53;21.40;99.90
34837;DHT22;21053;50.848;4.652;2023-10-09T16:02:21;21.30;99.90
34837;DHT22;21053;50.848;4.652;2023-10-09T16:04:50;21.20;99.90
34837;DHT22;21053;50.848;4.652;2023-10-09T16:07:17;21.20;99.90
34837;DHT22;21053;50.848;4.652;2023-10-09T16:09:46;21.10;99.90
34837;DHT22;21053;50.848;4.652;2023-10-09T16:12:15;21.00;99.90
34837;DHT22;21053;50.848;4.652;2023-10-09T16:14:49;20.80;99.90
34837;DHT22;21053;50.848;4.652;2023-10-09T16:17:18;20.80;99.90
34837;DHT22;21053;50.848;4.652;2023-10-09T16:19:47;20.60;99.90
34837;DHT22;21053;50.848;4.652;2023-10-09T16:22:13;20.50;99.90
34837;DHT22;21053;50.848;4.652;2023-10-09T16:24:40;20.50;99.90
34837;DHT22;21053;50.848;4.652;2023-10-09T16:27:07;20.40;99.90
34837;DHT22;21053;50.848;4.652;2023-10-09T16:29:34;20.20;99.90
34837;DHT22;21053;50.848;4.652;2023-10-09T16:32:03;20.10;99.90
34837;DHT22;21053;50.848;4.652;2023-10-09T16:34:30;20.00;99.90
34837;DHT22;21053;50.848;4.652;2023-10-09T16:36:59;19.90;99.90
34837;DHT22;21053;50.848;4.652;2023-10-09T16:39:25;19.80;99.90
34837;DHT22;21053;50.848;4.652;2023-10-09T16:42:01;19.70;99.90
34837;DHT22;21053;50.848;4.652;2023-10-09T16:44:32;19.60;99.90
34837;DHT22;21053;50.848;4.652;2023-10-09T16:47:08;19.50;99.90
34837;DHT22;21053;50.848;4.652;2023-10-09T16:49:35;19.40;99.90
34837;DHT22;21053;50.848;4.652;2023-10-09T16:52:02;19.30;99.90
34837;DHT22;21053;50.848;4.652;2023-10-09T16:54:38;19.30;99.90
34837;DHT22;21053;50.848;4.652;2023-10-09T16:57:05;19.20;99.90
34837;DHT22;21053;50.848;4.652;2023-10-09T16:59:39;19.10;99.90
34837;DHT22;21053;50.848;4.652;2023-10-09T17:02:08;18.90;99.90
34837;DHT22;21053;50.848;4.652;2023-10-09T17:04:40;18.90;99.90
34837;DHT22;21053;50.848;4.652;2023-10-09T17:07:12;18.80;99.90
34837;DHT22;21053;50.848;4.652;2023-10-09T17:09:42;18.70;99.90
34837;DHT22;21053;50.848;4.652;2023-10-09T17:12:10;18.60;99.90
34837;DHT22;21053;50.848;4.652;2023-10-09T17:14:41;18.50;99.90
34837;DHT22;21053;50.848;4.652;2023-10-09T17:17:08;18.40;99.90
34837;DHT22;21053;50.848;4.652;2023-10-09T17:19:37;18.40;99.90
34837;DHT22;21053;50.848;4.652;2023-10-09T17:22:08;18.30;99.90
34837;DHT22;21053;50.848;4.652;2023-10-09T17:24:37;18.20;99.90
34837;DHT22;21053;50.848;4.652;2023-10-09T17:27:09;18.10;99.90
34837;DHT22;21053;50.848;4.652;2023-10-09T17:29:35;18.00;99.90
34837;DHT22;21053;50.848;4.652;2023-10-09T17:32:06;17.90;99.90
34837;DHT22;21053;50.848;4.652;2023-10-09T17:34:34;17.90;99.90
34837;DHT22;21053;50.848;4.652;2023-10-09T17:37:15;17.80;99.90
34837;DHT22;21053;50.848;4.652;2023-10-09T17:39:44;17.70;99.90
34837;DHT22;21053;50.848;4.652;2023-10-09T17:42:16;17.70;99.90
34837;DHT22;21053;50.848;4.652;2023-10-09T17:45:50;17.60;99.90
34837;DHT22;21053;50.848;4.652;2023-10-09T17:48:18;17.60;99.90
34837;DHT22;21053;50.848;4.652;2023-10-09T17:50:59;17.50;99.90
34837;DHT22;21053;50.848;4.652;2023-10-09T17:53:35;17.40;99.90
34837;DHT22;21053;50.848;4.652;2023-10-09T17:56:09;17.40;99.90
34837;DHT22;21053;50.848;4.652;2023-10-09T17:58:36;17.30;99.90
34837;DHT22;21053;50.848;4.652;2023-10-09T18:01:10;17.20;99.90
34837;DHT22;21053;50.848;4.652;2023-10-09T18:03:37;17.20;99.90
34837;DHT22;21053;50.848;4.652;2023-10-09T18:06:05;17.20;99.90
34837;DHT22;21053;50.848;4.652;2023-10-09T18:08:31;17.10;99.90
34837;DHT22;21053;50.848;4.652;2023-10-09T18:10:59;17.00;99.90
34837;DHT22;21053;50.848;4.652;2023-10-09T18:13:35;17.00;99.90
34837;DHT22;21053;50.848;4.652;2023-10-09T18:16:06;16.90;99.90
34837;DHT22;21053;50.848;4.652;2023-10-09T18:18:44;16.90;99.90
34837;DHT22;21053;50.848;4.652;2023-10-09T18:21:11;16.90;99.90
34837;DHT22;21053;50.848;4.652;2023-10-09T18:23:39;16.80;99.90
34837;DHT22;21053;50.848;4.652;2023-10-09T18:26:10;16.80;99.90
34837;DHT22;21053;50.848;4.652;2023-10-09T18:28:41;16.70;99.90
34837;DHT22;21053;50.848;4.652;2023-10-09T18:31:12;16.70;99.90
34837;DHT22;21053;50.848;4.652;2023-10-09T18:33:38;16.70;99.90
34837;DHT22;21053;50.848;4.652;2023-10-09T18:36:09;16.70;99.90
34837;DHT22;21053;50.848;4.652;2023-10-09T18:38:36;16.60;99.90
34837;DHT22;21053;50.848;4.652;2023-10-09T18:41:10;16.60;99.90
34837;DHT22;21053;50.848;4.652;2023-10-09T18:43:39;16.50;99.90
34837;DHT22;21053;50.848;4.652;2023-10-09T18:46:06;16.60;99.90
34837;DHT22;21053;50.848;4.652;2023-10-09T18:48:35;16.50;99.90
34837;DHT22;21053;50.848;4.652;2023-10-09T18:51:03;16.40;99.90
34837;DHT22;21053;50.848;4.652;2023-10-09T18:53:42;16.40;99.90
34837;DHT22;21053;50.848;4.652;2023-10-09T18:56:18;16.40;99.90
34837;DHT22;21053;50.848;4.652;2023-10-09T18:58:50;16.40;99.90
34837;DHT22;21053;50.848;4.652;2023-10-09T19:01:22;16.30;99.90
34837;DHT22;21053;50.848;4.652;2023-10-09T19:03:49;16.30;99.90
34837;DHT22;21053;50.848;4.652;2023-10-09T19:06:17;16.20;99.90
34837;DHT22;21053;50.848;4.652;2023-10-09T19:08:44;16.20;99.90
34837;DHT22;21053;50.848;4.652;2023-10-09T19:11:10;16.10;99.90
34837;DHT22;21053;50.848;4.652;2023-10-09T19:13:37;16.00;99.90